Time;durP1;ratioP1;P1;durP2;ratioP2;P2;SDS_P1;SDS_P2;PMS_P1;PMS_P2;Temp;Humidity;BMP_temperature;BMP_pressure;BME280_temperature;BME280_humidity;BME280_pressure;Samples;Min_cycle;Max_cycle;Signal;HPM_P1;HPM_P2
2021/04/14 00:00:40;;;;;;;5.53;3.35;;;4.10;89.00;;;;;;5005605;28;20133;-36
2021/04/14 00:03:31;;;;;;;5.82;3.53;;;4.10;88.90;;;;;;4994478;28;20030;-38
2021/04/14 00:05:57;;;;;;;3.90;3.40;;;4.20;89.00;;;;;;4986481;28;20401;-38
2021/04/14 00:08:22;;;;;;;4.78;3.75;;;4.20;89.00;;;;;;4997924;28;20022;-37
2021/04/14 00:10:49;;;;;;;4.05;3.08;;;4.20;89.00;;;;;;4986302;28;20489;-38
2021/04/14 00:13:18;;;;;;;5.13;3.60;;;4.20;89.00;;;;;;4995990;28;20218;-37
2021/04/14 00:15:55;;;;;;;4.38;3.38;;;4.30;89.10;;;;;;4970344;28;20096;-34
2021/04/14 00:18:21;;;;;;;4.82;3.65;;;4.30;89.00;;;;;;4995099;28;20404;-33
2021/04/14 00:20:48;;;;;;;4.90;3.70;;;4.40;89.00;;;;;;4988843;28;20048;-38
2021/04/14 00:23:14;;;;;;;4.88;3.63;;;4.40;89.00;;;;;;4992782;28;20029;-38
2021/04/14 00:25:43;;;;;;;4.18;3.67;;;4.40;89.10;;;;;;4991478;28;20026;-36
2021/04/14 00:28:13;;;;;;;5.43;3.53;;;4.40;89.20;;;;;;4990348;28;20377;-35
2021/04/14 00:30:38;;;;;;;4.95;3.67;;;4.50;89.30;;;;;;4992801;28;20038;-38
2021/04/14 00:33:04;;;;;;;5.70;3.35;;;4.40;89.30;;;;;;4988079;28;20026;-38
2021/04/14 00:35:30;;;;;;;6.20;3.67;;;4.50;89.40;;;;;;4994913;28;20046;-38
2021/04/14 00:37:58;;;;;;;4.75;3.30;;;4.50;89.50;;;;;;4987050;28;20122;-39
2021/04/14 00:40:37;;;;;;;5.18;3.90;;;4.50;89.60;;;;;;4996609;28;20053;-38
2021/04/14 00:43:32;;;;;;;5.85;3.50;;;4.60;89.80;;;;;;4988089;28;20477;-36
2021/04/14 00:45:59;;;;;;;5.32;3.70;;;4.50;89.70;;;;;;4986577;28;20043;-38
2021/04/14 00:48:24;;;;;;;6.07;3.53;;;4.50;89.70;;;;;;4986531;28;20762;-37
2021/04/14 00:50:51;;;;;;;4.60;3.47;;;4.50;89.90;;;;;;4996835;28;20045;-37
2021/04/14 00:53:17;;;;;;;4.40;3.55;;;4.50;89.90;;;;;;4986862;28;20084;-38
2021/04/14 00:55:43;;;;;;;5.25;3.47;;;4.50;90.00;;;;;;4996466;28;20564;-37
2021/04/14 00:58:09;;;;;;;4.88;3.58;;;4.50;90.00;;;;;;4985706;28;20061;-38
2021/04/14 01:00:45;;;;;;;5.25;3.47;;;4.50;90.00;;;;;;4997349;28;20080;-36
2021/04/14 01:03:16;;;;;;;4.07;3.67;;;4.50;90.10;;;;;;4985175;28;20026;-38
2021/04/14 01:05:42;;;;;;;4.55;3.42;;;4.60;90.10;;;;;;4997575;28;20096;-36
2021/04/14 01:08:08;;;;;;;4.35;3.53;;;4.50;90.10;;;;;;4985086;28;20344;-37
2021/04/14 01:10:33;;;;;;;6.97;3.50;;;4.50;90.20;;;;;;4997420;28;20037;-39
2021/04/14 01:13:00;;;;;;;5.10;3.40;;;4.60;90.20;;;;;;4985597;28;20421;-36
2021/04/14 01:15:34;;;;;;;5.35;3.55;;;4.60;90.30;;;;;;4995597;28;20054;-38
2021/04/14 01:18:00;;;;;;;4.53;3.45;;;4.60;90.30;;;;;;4985410;28;20156;-37
2021/04/14 01:20:26;;;;;;;5.80;3.75;;;4.60;90.30;;;;;;4993856;28;20109;-37
2021/04/14 01:22:55;;;;;;;3.85;3.45;;;4.60;90.40;;;;;;4987967;28;20571;-35
2021/04/14 01:25:26;;;;;;;5.32;4.80;;;4.50;90.40;;;;;;4991883;28;20112;-37
2021/04/14 01:27:52;;;;;;;3.97;3.55;;;4.50;90.40;;;;;;4989549;28;20030;-37
2021/04/14 01:30:24;;;;;;;4.00;3.42;;;4.50;90.50;;;;;;4990159;28;20097;-38
2021/04/14 01:32:51;;;;;;;3.70;3.22;;;4.50;90.50;;;;;;4990711;28;20090;-38
2021/04/14 01:35:17;;;;;;;5.00;3.63;;;4.50;90.60;;;;;;4988206;28;20041;-38
2021/04/14 01:37:43;;;;;;;4.40;3.20;;;4.50;90.60;;;;;;4993342;28;20057;-36
2021/04/14 01:40:11;;;;;;;5.68;3.67;;;4.50;90.60;;;;;;4986106;28;20034;-35
2021/04/14 01:42:37;;;;;;;3.92;3.58;;;4.50;90.60;;;;;;4993322;28;20109;-38
2021/04/14 01:45:05;;;;;;;4.55;3.42;;;4.40;90.70;;;;;;4987991;28;20103;-36
2021/04/14 01:47:30;;;;;;;4.32;3.42;;;4.50;90.70;;;;;;4995291;28;20459;-39
2021/04/14 01:49:56;;;;;;;5.72;3.65;;;4.40;90.70;;;;;;4984705;28;20117;-39
2021/04/14 01:52:21;;;;;;;4.32;3.30;;;4.50;90.80;;;;;;4996666;28;20026;-38
2021/04/14 01:54:47;;;;;;;4.47;3.85;;;4.40;90.80;;;;;;4983061;28;20066;-36
2021/04/14 01:57:12;;;;;;;4.30;3.88;;;4.40;90.80;;;;;;5000907;28;20076;-35
2021/04/14 01:59:38;;;;;;;4.22;3.60;;;4.40;90.90;;;;;;5003988;28;20022;-37
2021/04/14 02:02:05;;;;;;;4.25;3.65;;;4.40;90.90;;;;;;4992903;28;20506;-38
2021/04/14 02:04:30;;;;;;;4.25;3.40;;;4.40;90.90;;;;;;5003086;28;20053;-37
2021/04/14 02:06:56;;;;;;;5.57;4.13;;;4.40;90.90;;;;;;4995293;28;20035;-36
2021/04/14 02:09:22;;;;;;;5.28;4.57;;;4.40;91.00;;;;;;5000890;28;20041;-35
2021/04/14 02:11:47;;;;;;;5.50;4.30;;;4.40;91.00;;;;;;4999790;28;20033;-35
2021/04/14 02:14:13;;;;;;;7.00;4.38;;;4.40;91.00;;;;;;5001742;28;20112;-37
2021/04/14 02:16:38;;;;;;;5.97;4.43;;;4.40;91.00;;;;;;5004023;28;20105;-37
2021/04/14 02:19:04;;;;;;;5.05;4.00;;;4.40;91.00;;;;;;4999028;28;20472;-38
2021/04/14 02:21:30;;;;;;;5.40;4.18;;;4.40;91.10;;;;;;5006075;28;20453;-38
2021/04/14 02:23:55;;;;;;;6.85;4.30;;;4.30;91.10;;;;;;4997016;28;20790;-36
2021/04/14 02:26:23;;;;;;;5.32;3.75;;;4.30;91.20;;;;;;5006786;28;20017;-37
2021/04/14 02:28:50;;;;;;;4.95;4.13;;;4.40;91.20;;;;;;4996396;28;20026;-34
2021/04/14 02:31:19;;;;;;;5.25;4.13;;;4.40;91.20;;;;;;5007952;28;20076;-37
2021/04/14 02:33:44;;;;;;;5.80;3.78;;;4.40;91.30;;;;;;4995657;28;20721;-38
2021/04/14 02:36:10;;;;;;;5.22;3.92;;;4.40;91.30;;;;;;5007631;28;20080;-35
2021/04/14 02:38:36;;;;;;;5.63;4.22;;;4.40;91.30;;;;;;4994692;28;20018;-37
2021/04/14 02:41:04;;;;;;;4.63;3.78;;;4.40;91.40;;;;;;5006901;28;20111;-37
2021/04/14 02:43:32;;;;;;;4.25;3.85;;;4.40;91.40;;;;;;4999655;28;20108;-37
2021/04/14 02:45:58;;;;;;;6.05;4.10;;;4.40;91.40;;;;;;5007236;28;20033;-34
2021/04/14 02:48:23;;;;;;;5.18;4.15;;;4.40;91.40;;;;;;4998243;28;20102;-36
2021/04/14 02:50:49;;;;;;;5.00;3.85;;;4.40;91.50;;;;;;5004183;28;20053;-35
2021/04/14 02:53:14;;;;;;;5.07;4.38;;;4.40;91.50;;;;;;5000714;28;20027;-37
2021/04/14 02:55:40;;;;;;;6.28;3.72;;;4.40;91.50;;;;;;5000981;28;20034;-38
2021/04/14 02:58:06;;;;;;;4.40;4.00;;;4.40;91.50;;;;;;5003394;28;20389;-37
2021/04/14 03:00:32;;;;;;;4.82;3.75;;;4.40;91.60;;;;;;4998940;28;20487;-34
2021/04/14 03:03:01;;;;;;;5.53;4.40;;;4.40;91.60;;;;;;5005159;28;20432;-38
2021/04/14 03:05:34;;;;;;;5.05;3.88;;;4.40;91.60;;;;;;4997192;28;20113;-37
2021/04/14 03:08:00;;;;;;;4.75;4.00;;;4.30;91.60;;;;;;5005511;28;20391;-39
2021/04/14 03:10:29;;;;;;;5.88;3.97;;;4.30;91.60;;;;;;4995633;28;20024;-38
2021/04/14 03:12:58;;;;;;;6.75;4.40;;;4.30;91.70;;;;;;5005262;28;20068;-38
2021/04/14 03:15:31;;;;;;;5.40;4.07;;;4.20;91.70;;;;;;4995889;28;20452;-34
2021/04/14 03:17:57;;;;;;;;;;;4.10;91.70;;;;;;5006094;28;20033;-39
2021/04/14 03:20:23;;;;;;;4.53;3.80;;;4.00;91.80;;;;;;4995457;28;20039;-39
2021/04/14 03:22:51;;;;;;;6.45;4.30;;;3.90;91.80;;;;;;5007292;28;20029;-38
2021/04/14 03:25:18;;;;;;;5.88;4.43;;;3.70;91.90;;;;;;4993948;28;20034;-37
2021/04/14 03:27:43;;;;;;;5.88;4.38;;;3.70;92.10;;;;;;5006405;28;20140;-38
2021/04/14 03:30:09;;;;;;;8.02;4.65;;;3.60;92.20;;;;;;4994206;28;20109;-38
2021/04/14 03:32:35;;;;;;;6.20;5.07;;;3.50;92.30;;;;;;5006947;28;20022;-38
2021/04/14 03:35:03;;;;;;;7.35;5.03;;;3.50;92.40;;;;;;4996689;28;20046;-39
2021/04/14 03:37:28;;;;;;;5.47;4.85;;;3.40;92.50;;;;;;5003882;28;20539;-36
2021/04/14 03:39:54;;;;;;;6.68;5.22;;;3.40;92.60;;;;;;4998951;28;20080;-39
2021/04/14 03:42:19;;;;;;;6.72;5.28;;;3.30;92.60;;;;;;5001736;28;20026;-35
2021/04/14 03:44:51;;;;;;;8.50;5.45;;;3.30;92.70;;;;;;4997360;28;20448;-38
2021/04/14 03:47:17;;;;;;;5.45;4.70;;;3.30;92.70;;;;;;4993768;28;20053;-39
2021/04/14 03:49:42;;;;;;;5.95;5.25;;;3.20;92.80;;;;;;4989330;28;20045;-38
2021/04/14 03:52:08;;;;;;;7.03;5.20;;;3.20;92.80;;;;;;4995873;28;20027;-39
2021/04/14 03:54:33;;;;;;;6.50;5.20;;;3.20;92.90;;;;;;4987477;28;20465;-39
2021/04/14 03:56:59;;;;;;;7.03;4.93;;;3.20;92.90;;;;;;4997614;28;20038;-35
2021/04/14 03:59:27;;;;;;;8.20;5.43;;;3.10;92.90;;;;;;4987980;28;20026;-38
2021/04/14 04:01:54;;;;;;;8.68;5.70;;;3.10;92.90;;;;;;4997388;28;20145;-37
2021/04/14 04:04:20;;;;;;;7.65;5.57;;;3.10;92.90;;;;;;4987136;28;20100;-36
2021/04/14 04:06:46;;;;;;;6.68;5.78;;;3.10;93.00;;;;;;4998453;28;20092;-34
2021/04/14 04:09:11;;;;;;;7.65;5.60;;;3.10;93.10;;;;;;4987078;28;20058;-40
2021/04/14 04:11:37;;;;;;;7.60;5.80;;;3.10;93.10;;;;;;4999127;28;20040;-39
2021/04/14 04:14:02;;;;;;;7.07;6.00;;;3.10;93.10;;;;;;4986594;28;20026;-35
2021/04/14 04:16:28;;;;;;;9.50;6.07;;;3.10;93.10;;;;;;4996320;28;20088;-38
2021/04/14 04:18:54;;;;;;;6.63;5.88;;;3.10;93.20;;;;;;4988205;28;20022;-36
2021/04/14 04:21:20;;;;;;;7.05;5.63;;;3.10;93.20;;;;;;4993534;28;20029;-36
2021/04/14 04:23:45;;;;;;;8.32;6.32;;;3.10;93.30;;;;;;4990330;28;20042;-35
2021/04/14 04:26:11;;;;;;;12.02;9.35;;;3.10;93.30;;;;;;4990934;28;20022;-37
2021/04/14 04:28:37;;;;;;;13.52;10.18;;;3.10;93.60;;;;;;4993004;28;20038;-38
2021/04/14 04:31:02;;;;;;;18.23;10.75;;;3.20;93.90;;;;;;4988255;28;20462;-38
2021/04/14 04:33:28;;;;;;;12.90;9.65;;;3.20;93.80;;;;;;4994699;28;20042;-36
2021/04/14 04:35:54;;;;;;;11.00;8.65;;;3.30;93.70;;;;;;4986823;28;20508;-36
2021/04/14 04:38:20;;;;;;;11.30;8.88;;;3.40;93.60;;;;;;4996946;28;20066;-38
2021/04/14 04:40:45;;;;;;;13.63;9.32;;;3.50;93.40;;;;;;4986250;28;20029;-38
2021/04/14 04:43:11;;;;;;;12.68;9.43;;;3.50;93.30;;;;;;4997163;28;20046;-39
2021/04/14 04:45:37;;;;;;;11.68;7.93;;;3.50;93.50;;;;;;5005507;28;20030;-39
2021/04/14 04:48:07;;;;;;;9.98;7.28;;;3.50;93.20;;;;;;4992136;28;20026;-37
2021/04/14 04:50:36;;;;;;;9.27;6.63;;;3.50;93.20;;;;;;5005487;28;21124;-38
2021/04/14 04:53:05;;;;;;;9.68;6.93;;;3.50;93.20;;;;;;4992714;28;20024;-38
2021/04/14 04:55:32;;;;;;;8.07;6.03;;;3.60;93.10;;;;;;5003240;28;20053;-37
2021/04/14 04:57:57;;;;;;;8.73;6.28;;;3.60;93.10;;;;;;4994365;28;20105;-37
2021/04/14 05:00:23;;;;;;;8.13;6.32;;;3.60;93.10;;;;;;5004517;28;20567;-35
2021/04/14 05:02:49;;;;;;;9.07;5.85;;;3.70;93.10;;;;;;4996365;28;20474;-38
2021/04/14 05:05:18;;;;;;;9.35;5.97;;;3.70;93.30;;;;;;5001989;28;20033;-35
2021/04/14 05:07:43;;;;;;;8.23;6.25;;;3.70;93.00;;;;;;4998798;28;20033;-37
2021/04/14 05:10:11;;;;;;;11.65;6.00;;;3.80;92.90;;;;;;4999098;28;20034;-38
2021/04/14 05:12:37;;;;;;;7.72;5.88;;;3.80;92.90;;;;;;5000849;28;20026;-37
2021/04/14 05:15:04;;;;;;;6.75;5.75;;;3.80;92.90;;;;;;4997446;28;20341;-38
2021/04/14 05:17:32;;;;;;;8.98;5.95;;;3.90;92.90;;;;;;5002848;28;20026;-38
2021/04/14 05:19:58;;;;;;;7.90;6.03;;;3.90;92.90;;;;;;4994732;28;20045;-39
2021/04/14 05:22:24;;;;;;;7.50;6.25;;;3.90;92.80;;;;;;5003912;28;20018;-38
2021/04/14 05:24:50;;;;;;;7.70;5.43;;;3.90;92.80;;;;;;4993555;28;20044;-40
2021/04/14 05:27:16;;;;;;;7.55;6.20;;;4.00;92.80;;;;;;5004423;28;20029;-36
2021/04/14 05:29:42;;;;;;;9.52;6.30;;;4.00;92.80;;;;;;4993647;28;20029;-36
2021/04/14 05:32:07;;;;;;;7.90;6.22;;;4.10;92.80;;;;;;5004836;28;20133;-38
2021/04/14 05:34:33;;;;;;;7.07;5.80;;;4.10;92.70;;;;;;4992073;28;20026;-39
2021/04/14 05:36:59;;;;;;;7.15;5.78;;;4.10;92.60;;;;;;5004953;28;20081;-39
2021/04/14 05:39:24;;;;;;;9.70;6.35;;;4.20;92.60;;;;;;4993464;28;20026;-38
2021/04/14 05:41:50;;;;;;;6.53;5.78;;;4.10;92.60;;;;;;5004544;28;20030;-35
2021/04/14 05:44:15;;;;;;;6.75;5.85;;;4.10;92.60;;;;;;4995368;28;20478;-38
2021/04/14 05:46:41;;;;;;;10.10;6.30;;;4.10;92.70;;;;;;5003817;28;20034;-38
2021/04/14 05:49:06;;;;;;;7.82;5.80;;;4.20;92.70;;;;;;5002541;28;20022;-36
2021/04/14 05:51:33;;;;;;;7.32;6.20;;;4.30;92.70;;;;;;4998874;28;20022;-34
2021/04/14 05:54:00;;;;;;;7.28;6.18;;;4.30;92.60;;;;;;4997121;28;20080;-37
2021/04/14 05:56:27;;;;;;;9.10;6.15;;;4.40;92.60;;;;;;4999218;28;20120;-39
2021/04/14 05:58:53;;;;;;;8.05;5.78;;;4.40;92.50;;;;;;5005360;28;20404;-38
2021/04/14 06:01:21;;;;;;;9.20;6.13;;;4.50;92.50;;;;;;4997344;28;20045;-38
2021/04/14 06:03:49;;;;;;;7.90;5.30;;;4.50;92.50;;;;;;5005965;28;20081;-36
2021/04/14 06:06:15;;;;;;;7.30;5.35;;;4.50;92.50;;;;;;4996887;28;20106;-37
2021/04/14 06:08:41;;;;;;;6.82;5.75;;;4.60;92.50;;;;;;5006000;28;20087;-37
2021/04/14 06:11:07;;;;;;;7.90;6.35;;;4.70;92.50;;;;;;4996112;28;20690;-37
2021/04/14 06:13:33;;;;;;;8.32;5.60;;;4.80;92.50;;;;;;4987163;28;20091;-39
2021/04/14 06:15:59;;;;;;;7.72;5.85;;;4.90;92.40;;;;;;4994332;28;20134;-39
2021/04/14 06:18:25;;;;;;;10.13;7.00;;;4.90;92.30;;;;;;5007926;28;20108;-36
2021/04/14 06:20:51;;;;;;;10.93;6.70;;;5.00;92.30;;;;;;4994652;28;20033;-37
2021/04/14 06:23:20;;;;;;;7.82;6.15;;;5.10;92.20;;;;;;5008175;28;20038;-36
2021/04/14 06:28:34;;;;;;;8.75;6.25;;;5.20;92.10;;;;;;4989044;28;20060;-39
2021/04/14 06:31:00;;;;;;;8.65;6.53;;;5.20;92.10;;;;;;4992460;28;20398;-38
2021/04/14 06:33:26;;;;;;;8.30;6.70;;;5.20;92.20;;;;;;4988119;28;20450;-38
2021/04/14 06:35:53;;;;;;;10.38;7.20;;;5.20;92.20;;;;;;4996410;28;20507;-38
2021/04/14 06:38:22;;;;;;;9.48;6.57;;;5.10;92.20;;;;;;4993061;28;20030;-37
2021/04/14 06:41:08;;;;;;;8.63;6.60;;;5.10;92.20;;;;;;4993396;28;20026;-39
2021/04/14 06:44:09;;;;;;;9.35;6.50;;;5.10;92.30;;;;;;4993155;28;20030;-38
2021/04/14 06:46:36;;;;;;;8.65;6.55;;;5.10;92.30;;;;;;4982430;28;20042;-39
2021/04/14 06:49:26;;;;;;;8.25;6.30;;;5.20;92.30;;;;;;5006660;28;20085;-39
2021/04/14 06:52:03;;;;;;;9.27;6.13;;;5.30;92.30;;;;;;4995595;28;20133;-38
2021/04/14 06:54:45;;;;;;;9.65;6.85;;;5.40;92.20;;;;;;4987378;28;20790;-38
2021/04/14 06:57:18;;;;;;;9.80;7.43;;;5.50;92.10;;;;;;4999384;28;20457;-36
2021/04/14 06:59:53;;;;;;;11.50;7.97;;;5.70;92.10;;;;;;4988332;28;20065;-38
2021/04/14 07:02:25;;;;;;;11.02;8.55;;;5.80;92.00;;;;;;4987813;28;20030;-36
2021/04/14 07:05:02;;;;;;;11.35;8.45;;;5.90;91.90;;;;;;4986606;28;20039;-38
2021/04/14 07:07:31;;;;;;;10.73;8.05;;;6.00;91.80;;;;;;4990496;28;20364;-38
2021/04/14 07:10:21;;;;;;;10.55;8.02;;;6.20;91.80;;;;;;5006711;28;20397;-38
2021/04/14 07:12:48;;;;;;;11.60;8.10;;;6.40;91.70;;;;;;5003192;28;20469;-38
2021/04/14 07:15:17;;;;;;;12.18;8.95;;;6.60;91.50;;;;;;5006910;28;20053;-38
2021/04/14 07:18:01;;;;;;;11.65;8.60;;;6.80;91.40;;;;;;4995308;28;20022;-37
2021/04/14 07:20:44;;;;;;;9.38;7.68;;;6.90;91.30;;;;;;5006814;28;20030;-38
2021/04/14 07:23:41;;;;;;;11.52;8.55;;;6.90;91.20;;;;;;4993972;28;20038;-37
2021/04/14 07:26:20;;;;;;;11.63;8.55;;;6.90;91.20;;;;;;4965743;28;20655;-37
2021/04/14 07:29:17;;;;;;;13.23;7.70;;;6.90;91.20;;;;;;4998749;28;20018;-38
2021/04/14 07:31:51;;;;;;;11.80;8.63;;;7.00;91.20;;;;;;4988713;28;20076;-39
2021/04/14 07:34:46;;;;;;;12.23;9.07;;;6.90;91.20;;;;;;4998506;28;20105;-36
2021/04/14 07:37:25;;;;;;;13.48;9.15;;;6.90;91.30;;;;;;4988745;28;20035;-40
2021/04/14 07:40:08;;;;;;;11.52;8.80;;;7.00;91.30;;;;;;4995775;28;20133;-36
2021/04/14 07:42:59;;;;;;;15.13;9.52;;;7.00;91.20;;;;;;4990444;28;20037;-37
2021/04/14 07:45:32;;;;;;;13.25;8.55;;;7.10;91.20;;;;;;4997033;28;20555;-36
2021/04/14 07:47:59;;;;;;;12.13;8.70;;;7.10;91.10;;;;;;5002216;28;20044;-36
2021/04/14 07:50:45;;;;;;;12.93;8.73;;;7.20;91.10;;;;;;4993394;28;20479;-38
2021/04/14 07:53:20;;;;;;;10.25;7.20;;;7.20;91.10;;;;;;4992566;28;20057;-37
2021/04/14 07:55:47;;;;;;;12.88;9.30;;;7.20;91.10;;;;;;4991633;28;20599;-38
2021/04/14 07:58:17;;;;;;;12.23;8.68;;;7.10;91.00;;;;;;4991283;28;20029;-37
2021/04/14 08:00:46;;;;;;;11.32;8.25;;;7.00;91.00;;;;;;4993980;28;20041;-38
2021/04/14 08:03:28;;;;;;;13.27;9.30;;;6.90;91.10;;;;;;4989485;28;20816;-37
2021/04/14 08:06:17;;;;;;;12.38;8.63;;;6.80;91.10;;;;;;4993243;28;20037;-38
2021/04/14 08:08:45;;;;;;;12.38;8.48;;;6.70;91.10;;;;;;4994456;28;20544;-42
2021/04/14 08:11:28;;;;;;;10.00;7.78;;;6.70;91.10;;;;;;4992175;28;20738;-38
2021/04/14 08:13:54;;;;;;;8.55;7.18;;;6.70;91.40;;;;;;4992441;28;20033;-36
2021/04/14 08:16:36;;;;;;;10.10;7.20;;;6.90;91.20;;;;;;4992841;28;20072;-38
2021/04/14 08:19:06;;;;;;;8.57;6.63;;;7.10;91.00;;;;;;4996076;28;20018;-39
2021/04/14 08:21:39;;;;;;;8.77;6.63;;;7.40;90.80;;;;;;5000050;28;20033;-38
2021/04/14 08:24:11;;;;;;;;;;;7.50;90.70;;;;;;4999893;28;20018;-38
2021/04/14 08:26:36;;;;;;;9.25;7.25;;;7.60;90.40;;;;;;4999208;28;19986;-35
2021/04/14 08:29:15;;;;;;;10.00;7.63;;;7.50;90.30;;;;;;5002747;28;20121;-39
2021/04/14 08:31:45;;;;;;;10.60;8.15;;;7.50;90.20;;;;;;4998695;28;20022;-39
2021/04/14 08:34:29;;;;;;;14.10;8.52;;;7.60;90.10;;;;;;5003815;28;20030;-37
2021/04/14 08:36:59;;;;;;;12.00;9.07;;;7.60;90.00;;;;;;4999376;28;20037;-37
2021/04/14 08:39:41;;;;;;;11.20;7.82;;;7.80;90.00;;;;;;5003340;28;20022;-39
2021/04/14 08:42:22;;;;;;;11.57;8.57;;;7.90;89.80;;;;;;4999390;28;20037;-36
2021/04/14 08:44:51;;;;;;;13.20;9.27;;;8.10;89.10;;;;;;5001717;28;20034;-39
2021/04/14 08:47:27;;;;;;;12.40;8.90;;;8.10;87.70;;;;;;4992533;28;20410;-37
2021/04/14 08:49:59;;;;;;;11.32;8.65;;;8.10;87.60;;;;;;4990445;28;20018;-37
2021/04/14 08:52:26;;;;;;;11.55;9.23;;;8.10;87.90;;;;;;4994466;28;20122;-37
2021/04/14 08:54:56;;;;;;;12.65;9.38;;;8.20;87.80;;;;;;4988172;28;20052;-35
2021/04/14 08:57:22;;;;;;;13.45;9.38;;;8.20;87.90;;;;;;4995714;28;20073;-38
2021/04/14 08:59:47;;;;;;;16.05;10.38;;;8.30;87.50;;;;;;4987683;28;20022;-38
2021/04/14 09:02:18;;;;;;;11.13;8.93;;;8.40;87.30;;;;;;4996576;28;20136;-36
2021/04/14 09:04:49;;;;;;;14.77;10.05;;;8.50;87.50;;;;;;4987644;28;20374;-38
2021/04/14 09:07:18;;;;;;;15.27;11.47;;;8.50;87.10;;;;;;4997076;28;20455;-37
2021/04/14 09:09:47;;;;;;;13.82;10.88;;;8.50;86.90;;;;;;4987585;28;20386;-37
2021/04/14 09:12:13;;;;;;;15.70;11.00;;;8.60;87.20;;;;;;4997962;28;20036;-38
2021/04/14 09:14:39;;;;;;;16.38;12.20;;;8.50;87.30;;;;;;4986360;28;20052;-39
2021/04/14 09:17:13;;;;;;;15.80;10.80;;;8.50;87.00;;;;;;4998380;28;20042;-39
2021/04/14 09:19:53;;;;;;;14.40;10.43;;;8.40;87.10;;;;;;4986472;28;20552;-40
2021/04/14 09:22:25;;;;;;;14.43;10.82;;;8.50;87.40;;;;;;4998684;28;20109;-39
2021/04/14 09:25:08;;;;;;;13.70;10.63;;;8.50;87.20;;;;;;4986768;28;20045;-38
2021/04/14 09:27:36;;;;;;;16.02;12.63;;;8.50;87.40;;;;;;4993361;28;20446;-38
2021/04/14 09:30:17;;;;;;;16.30;12.43;;;8.60;86.00;;;;;;5004861;28;20076;-38
2021/04/14 09:32:46;;;;;;;16.42;11.98;;;8.60;86.20;;;;;;4993704;28;20132;-38
2021/04/14 09:35:15;;;;;;;16.25;12.35;;;8.60;86.00;;;;;;5006477;28;20033;-38
2021/04/14 09:37:40;;;;;;;13.77;10.57;;;8.50;86.10;;;;;;4992958;28;20030;-40
2021/04/14 09:40:06;;;;;;;14.60;11.27;;;8.50;86.30;;;;;;5006336;28;20022;-38
2021/04/14 09:42:40;;;;;;;14.60;10.90;;;8.50;86.40;;;;;;4993834;28;20031;-39
2021/04/14 09:45:31;;;;;;;17.65;11.52;;;8.40;86.90;;;;;;4997509;28;20018;-37
2021/04/14 09:48:00;;;;;;;16.33;10.93;;;8.20;87.50;;;;;;4992645;28;20027;-38
2021/04/14 09:50:29;;;;;;;13.98;10.73;;;8.00;87.90;;;;;;4991924;28;20022;-40
2021/04/14 09:52:59;;;;;;;14.32;10.35;;;7.90;88.10;;;;;;4997792;28;20037;-39
2021/04/14 09:55:47;;;;;;;12.68;9.98;;;7.70;88.50;;;;;;4990225;28;20383;-39
2021/04/14 09:58:41;;;;;;;15.80;11.35;;;7.60;88.70;;;;;;5001190;28;20028;-39
2021/04/14 10:01:21;;;;;;;13.80;10.57;;;7.50;88.80;;;;;;5003610;28;20549;-38
2021/04/14 10:03:48;;;;;;;12.43;9.75;;;7.40;88.90;;;;;;4997153;28;20124;-38
2021/04/14 10:06:20;;;;;;;14.55;11.20;;;7.40;89.20;;;;;;4986543;28;20026;-41
2021/04/14 10:08:45;;;;;;;12.45;9.57;;;7.30;89.50;;;;;;4997896;28;20057;-37
2021/04/14 10:11:25;;;;;;;15.30;10.55;;;7.30;89.70;;;;;;4985764;28;20087;-39
2021/04/14 10:13:50;;;;;;;14.68;11.00;;;7.40;90.30;;;;;;4997784;28;20461;-39
2021/04/14 10:16:24;;;;;;;15.82;10.70;;;7.40;90.40;;;;;;4986260;28;20030;-36
2021/04/14 10:19:00;;;;;;;13.00;8.98;;;7.40;90.60;;;;;;4997693;28;20113;-37
2021/04/14 10:21:27;;;;;;;11.85;9.55;;;7.50;90.50;;;;;;4986117;28;20027;-39
2021/04/14 10:24:02;;;;;;;12.10;9.43;;;7.50;90.60;;;;;;4996964;28;20022;-37
2021/04/14 10:26:30;;;;;;;10.40;8.52;;;7.60;90.80;;;;;;5003702;28;20034;-42
2021/04/14 10:28:59;;;;;;;12.02;9.40;;;7.70;90.70;;;;;;5001073;28;20037;-38
2021/04/14 10:31:24;;;;;;;15.30;9.82;;;7.80;90.70;;;;;;4987358;28;20077;-38
2021/04/14 10:33:50;;;;;;;13.68;10.35;;;7.80;90.50;;;;;;4997293;28;20465;-38
2021/04/14 10:36:32;;;;;;;12.73;9.77;;;7.90;90.60;;;;;;4993356;28;20204;-38
2021/04/14 10:39:17;;;;;;;14.80;10.02;;;7.90;90.60;;;;;;4996319;28;20049;-39
2021/04/14 10:41:44;;;;;;;12.02;9.40;;;8.00;90.50;;;;;;4990811;28;20050;-39
2021/04/14 10:44:22;;;;;;;14.05;10.38;;;8.20;90.40;;;;;;4993943;28;20693;-38
2021/04/14 10:46:48;;;;;;;12.57;9.27;;;8.40;90.20;;;;;;4988200;28;20027;-35
2021/04/14 10:49:24;;;;;;;12.48;10.10;;;8.50;90.10;;;;;;4995107;28;20115;-38
2021/04/14 10:51:53;;;;;;;13.25;10.13;;;8.60;89.30;;;;;;4992894;28;20054;-36
2021/04/14 10:54:23;;;;;;;14.23;9.93;;;8.60;89.20;;;;;;4994817;28;20046;-36
2021/04/14 10:57:04;;;;;;;13.40;9.75;;;8.70;89.30;;;;;;4994032;28;20115;-39
2021/04/14 10:59:31;;;;;;;11.18;9.13;;;8.70;89.10;;;;;;4995778;28;20022;-37
2021/04/14 11:01:57;;;;;;;14.13;9.63;;;8.70;89.10;;;;;;4993906;28;20026;-36
2021/04/14 11:04:35;;;;;;;12.35;9.00;;;8.70;88.70;;;;;;4993039;28;20101;-37
2021/04/14 11:07:06;;;;;;;12.93;8.68;;;8.60;88.50;;;;;;4994719;28;20061;-40
2021/04/14 11:09:35;;;;;;;11.40;9.27;;;8.60;88.30;;;;;;4992190;28;20057;-37
2021/04/14 11:12:07;;;;;;;14.50;9.80;;;8.50;87.60;;;;;;4999386;28;20033;-40
2021/04/14 11:14:36;;;;;;;10.07;8.35;;;8.50;87.30;;;;;;5004590;28;20076;-37
2021/04/14 11:17:02;;;;;;;9.07;8.10;;;8.50;87.50;;;;;;4998911;28;20529;-38
2021/04/14 11:19:29;;;;;;;9.25;7.43;;;8.60;87.50;;;;;;5006440;28;20332;-38
2021/04/14 11:22:06;;;;;;;8.57;6.88;;;8.70;87.60;;;;;;4988156;28;20026;-38
2021/04/14 11:24:46;;;;;;;8.13;7.22;;;8.70;87.50;;;;;;4990145;28;20410;-39
2021/04/14 11:27:24;;;;;;;8.07;6.82;;;8.80;87.10;;;;;;4989254;28;20042;-37
2021/04/14 11:29:51;;;;;;;8.18;6.50;;;8.90;87.00;;;;;;4991083;28;20052;-38
2021/04/14 11:32:21;;;;;;;8.43;6.45;;;9.00;87.00;;;;;;4991129;28;20033;-38
2021/04/14 11:35:02;;;;;;;8.20;7.20;;;9.00;86.90;;;;;;4994229;28;20038;-37
2021/04/14 11:37:33;;;;;;;7.30;5.93;;;9.00;86.50;;;;;;5003805;28;20720;-35
2021/04/14 11:40:01;;;;;;;10.63;8.13;;;8.90;86.30;;;;;;4995209;28;20107;-41
2021/04/14 11:42:29;;;;;;;9.93;8.20;;;8.90;86.20;;;;;;4989296;28;20423;-37
2021/04/14 11:45:01;;;;;;;10.23;8.02;;;8.80;86.50;;;;;;4996143;28;20098;-38
2021/04/14 11:47:40;;;;;;;8.63;6.90;;;8.80;86.60;;;;;;4999160;28;20665;-38
2021/04/14 11:50:20;;;;;;;9.27;7.47;;;8.80;86.70;;;;;;4987395;28;20092;-38
2021/04/14 11:52:54;;;;;;;10.85;8.43;;;8.90;86.70;;;;;;4988941;28;20022;-38
2021/04/14 11:55:19;;;;;;;11.13;8.18;;;9.00;85.30;;;;;;4987111;28;20085;-39
2021/04/14 11:57:46;;;;;;;10.65;8.00;;;9.10;84.60;;;;;;4989408;28;20061;-38
2021/04/14 12:00:20;;;;;;;10.93;8.10;;;9.10;84.30;;;;;;4988391;28;20025;-37
2021/04/14 12:02:49;;;;;;;10.20;7.85;;;9.30;83.90;;;;;;4995149;28;20474;-38
2021/04/14 12:05:16;;;;;;;10.93;8.15;;;9.30;83.40;;;;;;5006700;28;20056;-38
2021/04/14 12:07:45;;;;;;;9.80;7.90;;;9.50;83.50;;;;;;4994010;28;20018;-37
2021/04/14 12:10:11;;;;;;;9.50;8.48;;;9.80;83.30;;;;;;5007107;28;20046;-37
2021/04/14 12:12:37;;;;;;;9.48;8.20;;;10.00;82.40;;;;;;5003260;28;20540;-39
2021/04/14 12:15:08;;;;;;;9.07;7.35;;;10.20;80.90;;;;;;4987014;28;20026;-36
2021/04/14 12:17:34;;;;;;;8.57;7.25;;;10.40;80.70;;;;;;4997583;28;20037;-37
2021/04/14 12:19:59;;;;;;;9.07;7.00;;;10.50;79.90;;;;;;4988018;28;20370;-38
2021/04/14 12:22:25;;;;;;;8.55;6.57;;;10.60;80.00;;;;;;4995205;28;20071;-39
2021/04/14 12:24:51;;;;;;;7.95;6.20;;;10.70;80.20;;;;;;4990778;28;20470;-35
2021/04/14 12:27:16;;;;;;;7.95;6.82;;;10.80;80.40;;;;;;4992365;28;20496;-37
2021/04/14 12:29:51;;;;;;;7.30;6.13;;;10.80;80.30;;;;;;4993840;28;20467;-39
2021/04/14 12:32:17;;;;;;;8.68;6.00;;;10.80;79.70;;;;;;4989918;28;20072;-38
2021/04/14 12:34:43;;;;;;;8.40;6.80;;;10.70;79.70;;;;;;4997466;28;20022;-37
2021/04/14 12:37:09;;;;;;;8.55;6.13;;;10.60;79.50;;;;;;5000897;28;20471;-38
2021/04/14 12:39:37;;;;;;;6.97;5.68;;;10.50;79.00;;;;;;5002213;28;20021;-38
2021/04/14 12:42:03;;;;;;;8.43;6.75;;;10.40;78.10;;;;;;5003129;28;20033;-37
2021/04/14 12:44:28;;;;;;;8.23;6.95;;;10.30;77.70;;;;;;5001705;28;20080;-39
2021/04/14 12:46:56;;;;;;;9.30;6.72;;;10.20;78.60;;;;;;5005428;28;20025;-38
2021/04/14 12:49:22;;;;;;;10.80;6.88;;;10.30;78.90;;;;;;4994375;28;20022;-39
2021/04/14 12:51:55;;;;;;;9.75;7.03;;;10.40;78.30;;;;;;5005688;28;20527;-39
2021/04/14 12:54:32;;;;;;;9.02;6.78;;;10.50;78.20;;;;;;4997402;28;20034;-38
2021/04/14 12:57:02;;;;;;;8.90;6.78;;;10.70;77.80;;;;;;4986119;28;20037;-41
2021/04/14 12:59:33;;;;;;;10.25;6.63;;;10.80;77.40;;;;;;4998692;28;20049;-37
2021/04/14 13:02:10;;;;;;;8.00;5.90;;;10.80;76.70;;;;;;5003215;28;20029;-37
2021/04/14 13:04:45;;;;;;;7.20;6.25;;;10.70;76.90;;;;;;4993358;28;20018;-38
2021/04/14 13:07:35;;;;;;;6.75;5.25;;;10.70;74.60;;;;;;5005769;28;20034;-39
2021/04/14 13:10:08;;;;;;;5.32;4.22;;;10.50;70.50;;;;;;4993460;28;20033;-37